Terminal Aerodrome Forecast
Issued by NWS

Home | Current Version | Previous Version | Text Only | Print | Product List | Glossary On
Versions: 1 2 3 4 5 6 7 8 9 10 11 12 13 14 15 16 17 18 19 20 21 22 23 24 25 26 27 28 29 30 31 32
880
FTUS43 KLOT 271502 AAB
TAFMDW
TAF AMD
KMDW 271502Z 2715/2812 13007KT P6SM SCT007 BKN025 OVC080
      TEMPO 2715/2716 BKN007
     FM271700 17009KT P6SM SCT012 BKN035
     FM271900 22011KT P6SM VCSH SCT030 BKN050
     FM272300 22007KT P6SM SCT040 BKN200
     FM280900 35005KT P6SM SCT015 OVC030=

USA.gov is the U.S. government's official web portal to all federal, state and local government web resources and services.